Map

Track Data

SID SEASON NUMBER BASIN SUBBASIN NAME ISO_TIME NATURE LAT LON WMO_WIND WMO_PRES WMO_AGENCY TRACK_TYPE DIST2LAND LANDFALL IFLAG USA_AGENCY USA_ATCF_ID USA_LAT USA_LON USA_RECORD USA_STATUS USA_WIND USA_PRES USA_SSHS USA_R34_NE USA_R34_SE USA_R34_SW USA_R34_NW USA_R50_NE USA_R50_SE USA_R50_SW USA_R50_NW USA_R64_NE USA_R64_SE USA_R64_SW USA_R64_NW USA_POCI USA_ROCI USA_RMW USA_EYE TOKYO_LAT TOKYO_LON TOKYO_GRADE TOKYO_WIND TOKYO_PRES TOKYO_R50_DIR TOKYO_R50_LONG TOKYO_R50_SHORT TOKYO_R30_DIR TOKYO_R30_LONG TOKYO_R30_SHORT TOKYO_LAND CMA_LAT CMA_LON CMA_CAT CMA_WIND CMA_PRES HKO_LAT HKO_LON HKO_CAT HKO_WIND HKO_PRES NEWDELHI_LAT NEWDELHI_LON NEWDELHI_GRADE NEWDELHI_WIND NEWDELHI_PRES NEWDELHI_CI NEWDELHI_DP NEWDELHI_POCI REUNION_LAT REUNION_LON REUNION_TYPE REUNION_WIND REUNION_PRES REUNION_TNUM REUNION_CI REUNION_RMW REUNION_R34_NE REUNION_R34_SE REUNION_R34_SW REUNION_R34_NW REUNION_R50_NE REUNION_R50_SE REUNION_R50_SW REUNION_R50_NW REUNION_R64_NE REUNION_R64_SE REUNION_R64_SW REUNION_R64_NW BOM_LAT BOM_LON BOM_TYPE BOM_WIND BOM_PRES BOM_TNUM BOM_CI BOM_RMW BOM_R34_NE BOM_R34_SE BOM_R34_SW BOM_R34_NW BOM_R50_NE BOM_R50_SE BOM_R50_SW BOM_R50_NW BOM_R64_NE BOM_R64_SE BOM_R64_SW BOM_R64_NW BOM_ROCI BOM_POCI BOM_EYE BOM_POS_METHOD BOM_PRES_METHOD NADI_LAT NADI_LON NADI_CAT NADI_WIND NADI_PRES WELLINGTON_LAT WELLINGTON_LON WELLINGTON_WIND WELLINGTON_PRES DS824_LAT DS824_LON DS824_STAGE DS824_WIND DS824_PRES TD9636_LAT TD9636_LON TD9636_STAGE TD9636_WIND TD9636_PRES TD9635_LAT TD9635_LON TD9635_WIND TD9635_PRES TD9635_ROCI NEUMANN_LAT NEUMANN_LON NEUMANN_CLASS NEUMANN_WIND NEUMANN_PRES MLC_LAT MLC_LON MLC_CLASS MLC_WIND MLC_PRES USA_GUST BOM_GUST BOM_GUST_PER REUNION_GUST REUNION_GUST_PER USA_SEAHGT USA_SEARAD_NE USA_SEARAD_SE USA_SEARAD_SW USA_SEARAD_NW STORM_SPEED STORM_DIR
1985202N26275 1985 58 NA GM BOB 1985-07-21 06:00:00 TS 26.0000 -85.0000 25 1012 hurdat_atl main 279 279 O_____________ hurdat_atl AL021985 26.0000 -85.0000 TD 25 1012 -1 2 155
1985202N26275 1985 58 NA GM BOB 1985-07-21 09:00:00 TS 25.9050 -84.9575 main 285 276 P_____________ AL021985 25.9050 -84.9575 TD 25 1011 -1 2 155
1985202N26275 1985 58 NA GM BOB 1985-07-21 12:00:00 TS 25.8000 -84.9000 25 1011 hurdat_atl main 282 277 O_____________ hurdat_atl AL021985 25.8000 -84.9000 TD 25 1011 -1 3 149
1985202N26275 1985 58 NA GM BOB 1985-07-21 15:00:00 TS 25.6850 -84.8150 main 277 274 P_____________ AL021985 25.6850 -84.8150 TD 25 1011 -1 3 138
1985202N26275 1985 58 NA GM BOB 1985-07-21 18:00:00 TS 25.6000 -84.7000 25 1011 hurdat_atl main 274 265 O_____________ hurdat_atl AL021985 25.6000 -84.7000 TD 25 1011 -1 3 116
1985202N26275 1985 58 NA GM BOB 1985-07-21 21:00:00 TS 25.5700 -84.5500 main 257 248 P_____________ AL021985 25.5700 -84.5500 TD 25 1010 -1 3 90
1985202N26275 1985 58 NA GM BOB 1985-07-22 00:00:00 TS 25.6000 -84.4000 25 1010 hurdat_atl main 248 234 O_____________ hurdat_atl AL021985 25.6000 -84.4000 TD 25 1010 -1 3 63
1985202N26275 1985 58 NA GM BOB 1985-07-22 03:00:00 TS 25.6850 -84.2925 main 234 219 P_____________ AL021985 25.6850 -84.2925 TD 27 1009 -1 3 42
1985202N26275 1985 58 NA GM BOB 1985-07-22 06:00:00 TS 25.8000 -84.2000 30 1009 hurdat_atl main 219 205 O_____________ hurdat_atl AL021985 25.8000 -84.2000 TD 30 1009 -1 3 39
1985202N26275 1985 58 NA GM BOB 1985-07-22 09:00:00 TS 25.9000 -84.1000 main 205 191 P_____________ AL021985 25.9000 -84.1000 TD 30 1008 -1 3 42
1985202N26275 1985 58 NA GM BOB 1985-07-22 12:00:00 TS 26.0000 -84.0000 30 1008 hurdat_atl main 191 177 O_____________ hurdat_atl AL021985 26.0000 -84.0000 TD 30 1008 -1 3 41
1985202N26275 1985 58 NA GM BOB 1985-07-22 15:00:00 TS 26.0925 -83.9149 main 177 163 P_____________ AL021985 26.0925 -83.9149 TD 32 1007 -1 3 42
1985202N26275 1985 58 NA GM BOB 1985-07-22 18:00:00 TS 26.2000 -83.8000 35 1007 hurdat_atl main 163 140 O_____________ hurdat_atl AL021985 26.2000 -83.8000 TS 35 1007 0 4 45
1985202N26275 1985 58 NA GM BOB 1985-07-22 21:00:00 TS 26.3575 -83.6226 main 136 114 P_____________ AL021985 26.3575 -83.6226 TS 35 1005 0 5 50
1985202N26275 1985 58 NA GM BOB 1985-07-23 00:00:00 TS 26.5000 -83.4000 35 1004 hurdat_atl main 114 92 O_____________ hurdat_atl AL021985 26.5000 -83.4000 TS 35 1004 0 5 61
1985202N26275 1985 58 NA GM BOB 1985-07-23 03:00:00 TS 26.5875 -83.1651 main 92 63 P_____________ AL021985 26.5875 -83.1651 TS 37 1004 0 5 77
1985202N26275 1985 58 NA GM BOB 1985-07-23 06:00:00 TS 26.6000 -82.9000 40 1004 hurdat_atl main 63 51 O_____________ hurdat_atl AL021985 26.6000 -82.9000 TS 40 1004 0 5 100
1985202N26275 1985 58 NA GM BOB 1985-07-23 09:00:00 TS 26.5071 -82.6523 main 51 29 P_____________ AL021985 26.5071 -82.6523 TS 40 1004 0 6 110
1985202N26275 1985 58 NA GM BOB 1985-07-23 12:00:00 TS 26.4000 -82.3000 40 1005 hurdat_atl main 29 0 O_____________ hurdat_atl AL021985 26.4000 -82.3000 TS 40 1005 0 9 102
1985202N26275 1985 58 NA NA BOB 1985-07-23 15:00:00 TS 26.3256 -81.7144 main 0 0 P_____________ AL021985 26.3256 -81.7144 TS 40 1005 0 11 90
1985202N26275 1985 58 NA NA BOB 1985-07-23 18:00:00 TS 26.4000 -81.1000 40 1006 hurdat_atl main 0 0 O_____________ hurdat_atl AL021985 26.4000 -81.1000 TS 40 1006 0 11 69
1985202N26275 1985 58 NA NA BOB 1985-07-23 21:00:00 TS 26.7174 -80.6035 main 0 0 P_____________ AL021985 26.7174 -80.6035 TS 40 1006 0 11 42
1985202N26275 1985 58 NA NA BOB 1985-07-24 00:00:00 TS 27.2000 -80.3000 40 1006 hurdat_atl main 0 0 O_____________ hurdat_atl AL021985 27.2000 -80.3000 TS 40 1006 0 11 16
1985202N26275 1985 58 NA NA BOB 1985-07-24 03:00:00 TS 27.7274 -80.2891 main 14 14 P_____________ AL021985 27.7274 -80.2891 TS 45 1005 0 11 355
1985202N26275 1985 58 NA NA BOB 1985-07-24 06:00:00 TS 28.3000 -80.4000 50 1005 hurdat_atl main 22 9 O_____________ hurdat_atl AL021985 28.3000 -80.4000 TS 50 1005 0 11 355
1985202N26275 1985 58 NA NA BOB 1985-07-24 09:00:00 TS 28.8500 -80.4002 main 29 29 P_____________ AL021985 28.8500 -80.4002 TS 55 1004 0 11 0
1985202N26275 1985 58 NA NA BOB 1985-07-24 12:00:00 TS 29.4000 -80.4000 60 1004 hurdat_atl main 58 58 O_____________ hurdat_atl AL021985 29.4000 -80.4000 TS 60 1004 0 11 358
1985202N26275 1985 58 NA NA BOB 1985-07-24 15:00:00 TS 29.9500 -80.4498 main 89 80 P_____________ AL021985 29.9500 -80.4498 TS 62 1003 0 11 355
1985202N26275 1985 58 NA NA BOB 1985-07-24 18:00:00 TS 30.5000 -80.5000 65 1003 hurdat_atl main 88 83 O_____________ hurdat_atl AL021985 30.5000 -80.5000 HU 65 1003 1 11 357
1985202N26275 1985 58 NA NA BOB 1985-07-24 21:00:00 TS 31.0398 -80.5069 main 83 50 P_____________ AL021985 31.0398 -80.5069 HU 65 1002 1 11 0
1985202N26275 1985 58 NA NA BOB 1985-07-25 00:00:00 TS 31.6000 -80.5000 65 1002 hurdat_atl main 50 14 O_____________ hurdat_atl AL021985 31.6000 -80.5000 HU 65 1002 1 12 0
1985202N26275 1985 58 NA NA BOB 1985-07-25 03:00:00 TS 32.2000 -80.5000 65 1003 hurdat_atl main 14 0 O_____________ hurdat_atl AL021985 32.2000 -80.5000 L HU 65 1003 1 13 353
1985202N26275 1985 58 NA NA BOB 1985-07-25 06:00:00 TS 32.9000 -80.7000 55 1004 hurdat_atl main 0 0 O_____________ hurdat_atl AL021985 32.9000 -80.7000 TS 55 1004 0 16 355
1985202N26275 1985 58 NA NA BOB 1985-07-25 09:00:00 TS 33.8057 -80.6756 main 0 0 P_____________ AL021985 33.8057 -80.6756 TS 50 1005 0 19 5
1985202N26275 1985 58 NA NA BOB 1985-07-25 12:00:00 TS 34.8000 -80.5000 45 1006 hurdat_atl main 0 0 O_____________ hurdat_atl AL021985 34.8000 -80.5000 TS 45 1006 0 19 9
1985202N26275 1985 58 NA NA BOB 1985-07-25 15:00:00 TS 35.7149 -80.3296 main 0 0 P_____________ AL021985 35.7149 -80.3296 TS 37 1007 0 18 10
1985202N26275 1985 58 NA NA BOB 1985-07-25 18:00:00 TS 36.6000 -80.1000 30 1009 hurdat_atl main 0 0 O_____________ hurdat_atl AL021985 36.6000 -80.1000 TD 30 1009 -1 18 13
1985202N26275 1985 58 NA NA BOB 1985-07-25 21:00:00 TS 37.4577 -79.8165 main 0 0 P_____________ AL021985 37.4577 -79.8165 TD 27 1010 -1 18 16
1985202N26275 1985 58 NA NA BOB 1985-07-26 00:00:00 TS 38.3000 -79.5000 25 1011 hurdat_atl main 0 O_____________ hurdat_atl AL021985 38.3000 -79.5000 TD 25 1011 -1 18 16

About IBTrACS Database

This database is a web-friendly format of International Best Track Archive for Climate Stewardship (IBTrACS), a global best track data archive curated by NOAA dating back to 1842.

Updated: 2021-12-06